createdAt,value
2018-01-06T00:00:29.055Z,1.90
2018-01-06T00:02:56.610Z,3.00
2018-01-06T00:05:24.176Z,2.12
2018-01-06T00:07:51.787Z,2.55
2018-01-06T00:10:19.400Z,3.30
2018-01-06T00:12:47.022Z,3.47
2018-01-06T00:15:15.391Z,2.60
2018-01-06T00:17:43.023Z,2.00
2018-01-06T00:20:10.640Z,4.28
2018-01-06T00:22:38.256Z,3.83
2018-01-06T00:25:05.836Z,2.10
2018-01-06T00:27:34.218Z,2.97
2018-01-06T00:30:01.819Z,3.35
2018-01-06T00:32:29.424Z,5.60
2018-01-06T00:35:00.262Z,2.37
2018-01-06T00:37:27.867Z,2.40
2018-01-06T00:39:55.459Z,2.15
2018-01-06T00:42:23.047Z,2.83
2018-01-06T00:44:50.614Z,2.17
2018-01-06T00:47:18.967Z,2.70
2018-01-06T00:49:47.265Z,7.35
2018-01-06T00:52:14.846Z,3.25
2018-01-06T00:54:42.423Z,3.03
2018-01-06T00:57:09.991Z,1.80
2018-01-06T00:59:37.611Z,5.85
2018-01-06T01:02:05.939Z,1.45
2018-01-06T01:04:33.563Z,2.45
2018-01-06T01:07:01.182Z,1.50
2018-01-06T01:09:28.767Z,1.75
2018-01-06T01:11:57.124Z,1.85
2018-01-06T01:14:24.774Z,2.12
2018-01-06T01:16:52.363Z,1.58
2018-01-06T01:19:22.119Z,1.58
2018-01-06T01:21:49.755Z,1.40
2018-01-06T01:24:17.329Z,2.45
2018-01-06T01:29:59.246Z,1.50
2018-01-06T01:32:26.843Z,1.40
2018-01-06T01:34:54.425Z,1.40
2018-01-06T01:37:26.807Z,3.75
2018-01-06T01:39:55.198Z,1.65
2018-01-06T01:42:22.779Z,1.50
2018-01-06T01:44:50.379Z,1.45
2018-01-06T01:47:18.022Z,1.75
2018-01-06T01:49:49.225Z,1.50
2018-01-06T01:52:16.783Z,2.00
2018-01-06T01:54:45.146Z,1.35
2018-01-06T01:57:13.503Z,3.62
2018-01-06T01:59:41.110Z,1.70
2018-01-06T02:02:09.368Z,1.87
2018-01-06T02:04:37.691Z,1.90
2018-01-06T02:07:05.316Z,2.55
2018-01-06T02:09:32.869Z,1.90
2018-01-06T02:12:00.482Z,1.70
2018-01-06T02:14:28.083Z,1.50
2018-01-06T02:16:56.488Z,5.80
2018-01-06T02:19:24.087Z,1.98
2018-01-06T02:21:52.152Z,1.80
2018-01-06T02:24:20.019Z,1.70
2018-01-06T02:26:47.623Z,2.37
2018-01-06T02:29:15.954Z,2.55
2018-01-06T02:31:43.576Z,1.60
2018-01-06T02:34:11.985Z,2.37
2018-01-06T02:36:39.611Z,1.50
2018-01-06T02:39:07.201Z,1.70
2018-01-06T02:41:34.832Z,8.63
2018-01-06T02:44:02.444Z,3.03
2018-01-06T02:46:30.028Z,2.22
2018-01-06T02:49:10.134Z,2.97
2018-01-06T02:51:37.696Z,2.55
2018-01-06T02:54:05.329Z,2.78
2018-01-06T02:56:33.792Z,3.55
2018-01-06T02:59:02.156Z,6.55
2018-01-06T03:01:30.109Z,5.95
2018-01-06T03:03:57.721Z,18.15
2018-01-06T03:06:25.342Z,9.30
2018-01-06T03:08:52.948Z,5.62
2018-01-06T03:11:20.594Z,5.32
2018-01-06T03:13:48.163Z,5.32
2018-01-06T03:16:15.771Z,5.10
2018-01-06T03:18:43.363Z,4.50
2018-01-06T03:21:11.742Z,4.85
2018-01-06T03:23:39.330Z,4.85
2018-01-06T03:26:07.680Z,2.00
2018-01-06T03:28:36.486Z,4.80
2018-01-06T03:31:04.106Z,6.03
2018-01-06T03:33:31.690Z,10.85
2018-01-06T03:42:02.194Z,7.37
2018-01-06T03:44:29.818Z,7.45
2018-01-06T03:46:58.182Z,2.58
2018-01-06T03:49:25.810Z,3.42
2018-01-06T03:51:53.379Z,4.40
2018-01-06T03:54:20.986Z,2.37
2018-01-06T03:56:48.591Z,5.93
2018-01-06T03:59:16.175Z,4.82
2018-01-06T04:01:43.779Z,5.60
2018-01-06T04:04:14.796Z,3.05
2018-01-06T04:06:43.159Z,7.20
2018-01-06T04:09:11.539Z,8.30
2018-01-06T04:11:39.916Z,2.65
2018-01-06T04:14:07.483Z,4.97
2018-01-06T04:16:36.862Z,6.50
2018-01-06T04:19:04.600Z,4.18
2018-01-06T04:21:32.213Z,8.73
2018-01-06T04:24:00.566Z,6.72
2018-01-06T04:26:28.171Z,2.10
2018-01-06T04:28:55.802Z,1.95
2018-01-06T04:31:24.163Z,3.40
2018-01-06T04:33:51.794Z,2.97
2018-01-06T04:36:19.358Z,4.47
2018-01-06T04:38:46.967Z,2.00
2018-01-06T04:41:15.551Z,2.45
2018-01-06T04:43:43.924Z,2.15
2018-01-06T04:46:12.246Z,3.87
2018-01-06T04:48:40.220Z,5.97
2018-01-06T04:51:08.592Z,2.42
2018-01-06T04:53:36.243Z,1.52
2018-01-06T04:56:03.810Z,1.45
2018-01-06T04:58:31.427Z,1.50
2018-01-06T05:00:59.023Z,2.00
2018-01-06T05:03:26.597Z,2.20
2018-01-06T05:05:54.186Z,4.80
2018-01-06T05:08:21.811Z,7.70
2018-01-06T05:10:49.418Z,6.12
2018-01-06T05:13:17.077Z,7.50
2018-01-06T05:15:44.687Z,7.43
2018-01-06T05:18:12.361Z,7.57
2018-01-06T05:20:39.963Z,9.77
2018-01-06T05:23:07.603Z,8.60
2018-01-06T05:25:35.250Z,11.23
2018-01-06T05:28:02.842Z,12.70
2018-01-06T05:30:30.403Z,9.10
2018-01-06T05:33:00.099Z,16.17
2018-01-06T05:35:27.702Z,11.05
2018-01-06T05:37:57.035Z,18.52
2018-01-06T05:40:25.378Z,15.27
2018-01-06T05:42:53.044Z,14.87
2018-01-06T05:45:20.620Z,22.02
2018-01-06T05:47:48.216Z,16.23
2018-01-06T05:50:15.828Z,12.10
2018-01-06T05:53:03.063Z,12.60
2018-01-06T05:55:30.626Z,10.27
2018-01-06T05:57:58.232Z,9.50
2018-01-06T06:00:25.821Z,6.72
2018-01-06T06:02:53.406Z,4.65
2018-01-06T06:05:20.975Z,3.67
2018-01-06T06:07:48.541Z,4.25
2018-01-06T06:10:16.134Z,5.55
2018-01-06T06:12:43.736Z,6.80
2018-01-06T06:15:11.333Z,7.57
2018-01-06T06:17:39.421Z,11.45
2018-01-06T06:20:07.016Z,8.65
2018-01-06T06:22:34.649Z,10.32
2018-01-06T06:25:02.237Z,8.20
2018-01-06T06:27:29.814Z,13.50
2018-01-06T06:29:58.180Z,14.07
2018-01-06T06:32:25.817Z,12.27
2018-01-06T06:34:54.196Z,45.75
2018-01-06T06:37:22.609Z,18.73
2018-01-06T06:39:50.201Z,11.35
2018-01-06T06:42:17.812Z,10.38
2018-01-06T06:44:45.431Z,26.75
2018-01-06T06:47:13.054Z,29.77
2018-01-06T06:49:40.731Z,37.70
2018-01-06T06:52:08.575Z,18.62
2018-01-06T06:54:36.172Z,13.23
2018-01-06T06:57:06.963Z,15.18
2018-01-06T06:59:37.737Z,9.88
2018-01-06T07:02:08.686Z,12.32
2018-01-06T07:04:36.275Z,13.25
2018-01-06T07:07:03.837Z,12.60
2018-01-06T07:09:32.164Z,25.05
2018-01-06T07:12:01.741Z,21.35
2018-01-06T07:14:29.303Z,27.25
2018-01-06T07:16:56.883Z,23.33
2018-01-06T07:19:24.526Z,15.77
2018-01-06T07:21:52.860Z,26.55
2018-01-06T07:24:21.239Z,18.60
2018-01-06T07:26:51.420Z,22.05
2018-01-06T07:29:19.066Z,19.40
2018-01-06T07:31:47.433Z,18.50
2018-01-06T07:34:25.430Z,16.30
2018-01-06T07:36:54.194Z,9.82
2018-01-06T07:39:21.801Z,6.90
2018-01-06T07:41:49.395Z,5.55
2018-01-06T07:44:16.991Z,5.40
2018-01-06T07:46:45.581Z,4.15
2018-01-06T07:49:13.183Z,22.92
2018-01-06T07:51:40.767Z,16.27
2018-01-06T07:54:08.374Z,13.95
2018-01-06T07:56:35.939Z,13.20
2018-01-06T07:59:04.311Z,5.95
2018-01-06T08:01:31.916Z,3.08
2018-01-06T08:04:00.788Z,10.00
2018-01-06T08:06:28.419Z,10.05
2018-01-06T08:09:02.151Z,8.70
2018-01-06T08:11:29.735Z,14.00
2018-01-06T08:13:57.854Z,10.23
2018-01-06T08:16:26.069Z,9.18
2018-01-06T08:18:53.652Z,5.63
2018-01-06T08:21:22.303Z,5.67
2018-01-06T08:23:49.906Z,6.45
2018-01-06T08:26:17.503Z,12.13
2018-01-06T08:28:46.312Z,16.27
2018-01-06T08:31:14.140Z,18.97
2018-01-06T08:33:41.726Z,18.23
2018-01-06T08:36:09.323Z,18.37
2018-01-06T08:38:37.319Z,18.53
2018-01-06T08:41:08.765Z,19.47
2018-01-06T08:43:38.519Z,21.67
2018-01-06T08:46:06.940Z,16.03
2018-01-06T08:48:34.535Z,16.70
2018-01-06T08:51:02.948Z,13.60
2018-01-06T08:53:31.595Z,12.50
2018-01-06T08:55:59.191Z,11.30
2018-01-06T08:58:26.841Z,16.63
2018-01-06T09:01:00.560Z,16.40
2018-01-06T09:03:28.184Z,12.30
2018-01-06T09:05:55.759Z,19.30
2018-01-06T09:08:25.971Z,17.00
2018-01-06T09:10:53.576Z,16.77
2018-01-06T09:13:21.168Z,20.60
2018-01-06T09:15:50.146Z,12.93
2018-01-06T09:18:18.541Z,14.10
2018-01-06T09:20:46.950Z,14.00
2018-01-06T09:23:15.068Z,12.23
2018-01-06T09:25:42.821Z,17.73
2018-01-06T09:28:10.445Z,19.40
2018-01-06T09:30:38.720Z,17.20
2018-01-06T09:33:06.359Z,17.73
2018-01-06T09:35:35.088Z,14.17
2018-01-06T09:38:03.154Z,11.60
2018-01-06T09:40:30.743Z,11.40
2018-01-06T09:42:58.317Z,12.17
2018-01-06T09:45:26.494Z,10.50
2018-01-06T09:47:54.067Z,13.17
2018-01-06T09:50:22.470Z,11.57
2018-01-06T09:52:50.562Z,12.30
2018-01-06T09:55:18.129Z,18.27
2018-01-06T09:57:49.206Z,17.80
2018-01-06T10:00:21.646Z,16.70
2018-01-06T10:02:49.260Z,20.70
2018-01-06T10:05:24.211Z,12.03
2018-01-06T10:07:51.840Z,14.63
2018-01-06T10:10:20.228Z,16.87
2018-01-06T10:12:48.614Z,21.87
2018-01-06T10:15:16.199Z,13.60
2018-01-06T10:17:43.760Z,13.70
2018-01-06T10:20:11.382Z,13.50
2018-01-06T10:22:39.756Z,11.63
2018-01-06T10:25:08.159Z,11.50
2018-01-06T10:27:35.744Z,9.63
2018-01-06T10:30:03.357Z,10.47
2018-01-06T10:32:31.753Z,13.50
2018-01-06T10:34:59.411Z,11.43
2018-01-06T10:37:27.758Z,11.83
2018-01-06T10:39:55.351Z,9.03
2018-01-06T10:42:22.958Z,9.20
2018-01-06T10:44:50.585Z,7.67
2018-01-06T10:47:18.199Z,8.30
2018-01-06T10:49:45.833Z,7.23
2018-01-06T10:52:13.398Z,5.97
2018-01-06T10:54:41.045Z,11.00
2018-01-06T10:57:08.625Z,9.30
2018-01-06T10:59:36.208Z,6.17
2018-01-06T11:02:06.595Z,6.67
2018-01-06T11:04:34.224Z,4.93
2018-01-06T11:07:02.556Z,4.73
2018-01-06T11:09:30.177Z,5.27
2018-01-06T11:11:57.811Z,6.57
2018-01-06T11:14:25.447Z,5.40
2018-01-06T11:16:53.058Z,6.53
2018-01-06T11:19:20.624Z,10.33
2018-01-06T11:21:48.244Z,8.17
2018-01-06T11:24:16.639Z,12.00
2018-01-06T11:26:44.270Z,10.50
2018-01-06T11:29:12.637Z,9.37
2018-01-06T11:31:40.253Z,7.90
2018-01-06T11:34:07.859Z,10.03
2018-01-06T11:36:35.450Z,8.50
2018-01-06T11:39:03.820Z,9.17
2018-01-06T11:41:32.203Z,7.67
2018-01-06T11:44:00.561Z,7.77
2018-01-06T11:46:28.176Z,7.63
2018-01-06T11:48:55.794Z,8.10
2018-01-06T11:51:24.595Z,6.70
2018-01-06T11:53:52.202Z,5.87
2018-01-06T11:56:20.759Z,7.23
2018-01-06T11:58:48.358Z,6.57
2018-01-06T12:01:15.995Z,4.83
2018-01-06T12:03:43.628Z,5.20
2018-01-06T12:06:11.206Z,5.03
2018-01-06T12:08:38.797Z,5.00
2018-01-06T12:11:06.969Z,4.63
2018-01-06T12:13:34.567Z,10.37
2018-01-06T12:16:02.910Z,10.67
2018-01-06T12:18:30.503Z,18.83
2018-01-06T12:20:58.944Z,14.10
2018-01-06T12:23:26.540Z,6.93
2018-01-06T12:25:54.943Z,6.37
2018-01-06T12:28:22.494Z,4.60
2018-01-06T12:30:50.115Z,3.40
2018-01-06T12:33:17.703Z,4.37
2018-01-06T12:35:45.317Z,3.40
2018-01-06T12:38:12.898Z,3.90
2018-01-06T12:40:40.516Z,2.97
2018-01-06T12:43:08.110Z,3.20
2018-01-06T12:45:35.732Z,3.17
2018-01-06T12:48:03.383Z,3.63
2018-01-06T12:50:30.990Z,4.80
2018-01-06T12:52:58.588Z,3.43
2018-01-06T12:55:26.947Z,3.87
2018-01-06T12:57:54.509Z,4.23
2018-01-06T13:00:22.121Z,4.30
2018-01-06T13:02:49.739Z,3.47
2018-01-06T13:05:18.098Z,3.80
2018-01-06T13:07:45.698Z,3.67
2018-01-06T13:10:13.288Z,3.50
2018-01-06T13:12:40.983Z,3.80
2018-01-06T13:15:09.350Z,3.70
2018-01-06T13:17:36.959Z,4.00
2018-01-06T13:20:04.571Z,4.33
2018-01-06T13:22:32.178Z,4.30
2018-01-06T13:24:59.740Z,4.30
2018-01-06T13:27:27.350Z,4.17
2018-01-06T13:29:54.987Z,4.87
2018-01-06T13:32:22.565Z,5.33
2018-01-06T13:34:50.166Z,4.67
2018-01-06T13:37:18.562Z,4.73
2018-01-06T13:39:46.188Z,4.80
2018-01-06T13:42:13.800Z,4.80
2018-01-06T13:44:41.423Z,4.90
2018-01-06T13:47:09.802Z,5.77
2018-01-06T13:49:37.367Z,3.80
2018-01-06T13:52:05.727Z,14.27
2018-01-06T13:54:34.063Z,9.10
2018-01-06T13:57:01.691Z,10.40
2018-01-06T13:59:29.322Z,6.27
2018-01-06T14:01:58.494Z,5.40
2018-01-06T14:04:26.130Z,4.90
2018-01-06T14:06:54.304Z,4.60
2018-01-06T14:09:21.898Z,4.77
2018-01-06T14:11:49.532Z,4.57
2018-01-06T14:14:17.167Z,5.30
2018-01-06T14:16:50.968Z,5.00
2018-01-06T14:19:18.645Z,4.70
2018-01-06T14:21:47.051Z,5.90
2018-01-06T14:24:14.618Z,5.83
2018-01-06T14:26:42.203Z,6.60
2018-01-06T14:29:10.611Z,6.27
2018-01-06T14:31:38.193Z,5.93
2018-01-06T14:34:05.852Z,6.50
2018-01-06T14:36:33.438Z,5.13
2018-01-06T14:39:01.052Z,5.13
2018-01-06T14:41:28.660Z,5.43
2018-01-06T14:43:56.293Z,5.20
2018-01-06T14:46:23.997Z,5.57
2018-01-06T14:48:51.556Z,6.40
2018-01-06T14:51:19.279Z,5.77
2018-01-06T14:53:46.883Z,4.63
2018-01-06T14:56:14.497Z,6.40
2018-01-06T14:58:42.835Z,4.97
2018-01-06T15:01:11.207Z,5.10
2018-01-06T15:03:38.824Z,5.27
2018-01-06T15:06:06.436Z,8.93
2018-01-06T15:08:34.839Z,17.93
2018-01-06T15:11:02.411Z,5.93
2018-01-06T15:13:30.023Z,6.17
2018-01-06T15:15:57.637Z,5.60
2018-01-06T15:18:25.197Z,5.73
2018-01-06T15:20:52.855Z,5.00
2018-01-06T15:23:20.497Z,3.90
2018-01-06T15:25:49.004Z,4.27
2018-01-06T15:28:16.609Z,4.20
2018-01-06T15:30:45.023Z,5.93
2018-01-06T15:33:12.670Z,4.40
2018-01-06T15:35:40.228Z,4.87
2018-01-06T15:38:07.855Z,8.63
2018-01-06T15:40:35.480Z,5.10
2018-01-06T15:43:03.090Z,4.72
2018-01-06T15:45:31.460Z,8.23
2018-01-06T15:47:59.117Z,8.65
2018-01-06T15:50:26.735Z,8.20
2018-01-06T15:52:54.327Z,12.35
2018-01-06T15:55:21.952Z,14.07
2018-01-06T15:57:49.593Z,11.82
2018-01-06T16:00:17.219Z,11.60
2018-01-06T16:02:50.494Z,16.02
2018-01-06T16:05:21.467Z,12.57
2018-01-06T16:07:55.939Z,17.67
2018-01-06T16:10:24.332Z,13.82
2018-01-06T16:12:51.987Z,18.00
2018-01-06T16:15:19.598Z,16.20
2018-01-06T16:17:47.993Z,16.58
2018-01-06T16:20:15.612Z,22.37
2018-01-06T16:22:43.208Z,20.50
2018-01-06T16:25:10.824Z,21.17
2018-01-06T16:27:39.356Z,20.58
2018-01-06T16:30:06.927Z,22.67
2018-01-06T16:32:37.912Z,23.02
2018-01-06T16:35:05.586Z,26.87
2018-01-06T16:37:33.169Z,26.02
2018-01-06T16:40:01.580Z,31.50
2018-01-06T16:42:29.194Z,31.05
2018-01-06T16:44:57.579Z,64.82
2018-01-06T16:47:25.972Z,78.43
2018-01-06T16:49:53.614Z,254.02
2018-01-06T16:52:21.996Z,156.68
2018-01-06T16:54:50.424Z,214.25
2018-01-06T16:57:18.021Z,167.50
2018-01-06T16:59:45.642Z,127.93
2018-01-06T17:02:13.304Z,130.10
2018-01-06T17:04:40.904Z,151.45
2018-01-06T17:07:08.494Z,152.07
2018-01-06T17:09:36.114Z,135.95
2018-01-06T17:12:03.761Z,137.02
2018-01-06T17:14:31.356Z,173.73
2018-01-06T17:16:59.718Z,141.60
2018-01-06T17:19:27.306Z,149.45
2018-01-06T17:21:55.659Z,136.70
2018-01-06T17:24:23.294Z,138.70
2018-01-06T17:26:50.909Z,152.85
2018-01-06T17:29:18.533Z,153.07
2018-01-06T17:31:46.162Z,133.15
2018-01-06T17:34:13.754Z,149.75
2018-01-06T17:36:41.364Z,130.57
2018-01-06T17:39:16.184Z,143.65
2018-01-06T17:41:43.748Z,194.07
2018-01-06T17:44:11.412Z,143.02
2018-01-06T17:46:39.491Z,123.93
2018-01-06T17:49:07.671Z,120.45
2018-01-06T17:51:38.648Z,126.40
2018-01-06T17:54:06.712Z,107.70
2018-01-06T17:56:34.703Z,99.10
2018-01-06T17:59:02.335Z,106.75
2018-01-06T18:01:29.944Z,97.05
2018-01-06T18:03:58.390Z,81.35
2018-01-06T18:06:26.460Z,84.00
2018-01-06T18:08:55.039Z,104.80
2018-01-06T18:11:23.367Z,88.62
2018-01-06T18:13:50.948Z,87.15
2018-01-06T18:16:18.574Z,103.50
2018-01-06T18:18:46.948Z,94.30
2018-01-06T18:21:22.943Z,98.53
2018-01-06T18:23:50.531Z,125.03
2018-01-06T18:26:18.157Z,126.30
2018-01-06T18:28:45.761Z,86.63
2018-01-06T18:31:13.412Z,102.60
2018-01-06T18:33:41.057Z,115.72
2018-01-06T18:36:08.680Z,107.97
2018-01-06T18:38:57.426Z,94.32
2018-01-06T18:44:21.707Z,127.07
2018-01-06T18:46:49.445Z,131.43
2018-01-06T18:49:17.070Z,129.57
2018-01-06T18:51:44.755Z,120.18
2018-01-06T18:54:12.381Z,150.50
2018-01-06T18:56:40.941Z,158.43
2018-01-06T18:59:09.322Z,145.35
2018-01-06T19:01:36.960Z,146.65
2018-01-06T19:04:04.595Z,141.62
2018-01-06T19:06:32.988Z,152.95
2018-01-06T19:09:00.580Z,143.80
2018-01-06T19:11:28.178Z,141.88
2018-01-06T19:14:21.488Z,154.43
2018-01-06T19:16:49.082Z,150.05
2018-01-06T19:19:16.728Z,147.73
2018-01-06T19:21:45.087Z,138.77
2018-01-06T19:24:12.724Z,124.97
2018-01-06T19:27:00.038Z,130.87
2018-01-06T19:29:26.472Z,110.05
2018-01-06T19:31:52.867Z,124.85
2018-01-06T19:34:19.919Z,121.28
2018-01-06T19:36:57.776Z,126.97
2018-01-06T19:39:24.150Z,126.10
2018-01-06T19:41:50.523Z,182.20
2018-01-06T19:44:16.918Z,180.18
2018-01-06T19:46:43.255Z,158.87
2018-01-06T19:49:09.564Z,148.70
2018-01-06T19:51:36.694Z,154.43
2018-01-06T19:54:03.052Z,190.77
2018-01-06T19:56:30.146Z,213.55
2018-01-06T19:58:56.476Z,184.85
2018-01-06T20:01:22.796Z,185.32
2018-01-06T20:03:49.132Z,172.37
2018-01-06T20:06:15.548Z,186.27
2018-01-06T20:08:41.933Z,153.10
2018-01-06T20:11:08.319Z,213.48
2018-01-06T20:13:34.720Z,227.50
2018-01-06T20:16:01.819Z,216.12
2018-01-06T20:18:28.162Z,238.43
2018-01-06T20:21:14.739Z,248.98
2018-01-06T20:23:41.047Z,241.18
2018-01-06T20:26:07.377Z,272.67
2018-01-06T20:28:46.354Z,217.32
2018-01-06T20:31:12.683Z,202.23
2018-01-06T20:33:39.035Z,220.23
2018-01-06T20:36:05.419Z,196.57
2018-01-06T20:38:32.486Z,249.18
2018-01-06T20:40:58.820Z,220.82
2018-01-06T20:43:25.228Z,256.45
2018-01-06T20:45:51.616Z,313.90
2018-01-06T20:48:18.789Z,293.63
2018-01-06T20:50:45.164Z,272.30
2018-01-06T20:53:11.513Z,253.95
2018-01-06T20:55:37.816Z,257.50
2018-01-06T20:58:04.195Z,231.98
2018-01-06T21:00:31.253Z,228.52
2018-01-06T21:02:57.618Z,202.30
2018-01-06T21:05:24.001Z,301.12
2018-01-06T21:07:51.099Z,274.65
2018-01-06T21:10:17.460Z,240.60
2018-01-06T21:12:43.812Z,194.60
2018-01-06T21:15:10.904Z,188.50
2018-01-06T21:17:37.199Z,199.93
2018-01-06T21:20:03.592Z,190.48
2018-01-06T21:22:29.898Z,233.15
2018-01-06T21:24:56.244Z,225.23
2018-01-06T21:27:22.567Z,230.23
2018-01-06T21:29:48.945Z,230.60
2018-01-06T21:32:16.054Z,273.30
2018-01-06T21:34:42.399Z,227.85
2018-01-06T21:37:08.716Z,200.23
2018-01-06T21:39:35.097Z,223.65
2018-01-06T21:42:01.484Z,185.45
2018-01-06T21:44:27.885Z,201.90
2018-01-06T21:46:54.367Z,221.37
2018-01-06T21:49:21.481Z,241.00
2018-01-06T21:51:47.913Z,214.25
2018-01-06T21:54:14.236Z,235.35
2018-01-06T21:56:40.584Z,227.77
2018-01-06T21:59:06.935Z,217.35
2018-01-06T22:01:33.272Z,218.90
2018-01-06T22:03:59.632Z,231.35
2018-01-06T22:06:25.954Z,246.00
2018-01-06T22:08:53.064Z,294.75
2018-01-06T22:11:19.391Z,281.00
2018-01-06T22:13:45.722Z,277.52
2018-01-06T22:16:12.022Z,289.15
2018-01-06T22:18:38.371Z,282.70
2018-01-06T22:21:04.763Z,273.13
2018-01-06T22:23:31.074Z,241.90
2018-01-06T22:25:58.135Z,213.65
2018-01-06T22:28:25.194Z,197.40
2018-01-06T22:30:51.568Z,212.50
2018-01-06T22:33:17.919Z,209.07
2018-01-06T22:35:44.215Z,198.13
2018-01-06T22:38:10.555Z,194.40
2018-01-06T22:40:36.887Z,188.52
2018-01-06T22:43:03.204Z,197.13
2018-01-06T22:45:29.524Z,189.13
2018-01-06T22:47:55.871Z,241.57
2018-01-06T22:50:22.213Z,221.00
2018-01-06T22:52:48.559Z,201.15
2018-01-06T22:55:14.891Z,302.80
2018-01-06T22:57:41.201Z,343.95
2018-01-06T23:00:07.527Z,392.27
2018-01-06T23:02:45.216Z,371.37
2018-01-06T23:05:11.544Z,473.95
2018-01-06T23:07:37.916Z,582.62
2018-01-06T23:10:04.250Z,591.28
2018-01-06T23:12:30.578Z,621.97
2018-01-06T23:14:56.897Z,619.65
2018-01-06T23:17:23.265Z,556.15
2018-01-06T23:19:49.573Z,513.17
2018-01-06T23:22:15.952Z,500.65
2018-01-06T23:24:42.312Z,441.42
2018-01-06T23:27:08.741Z,284.10
2018-01-06T23:29:35.130Z,228.12
2018-01-06T23:32:01.462Z,203.05
2018-01-06T23:34:27.846Z,234.48
2018-01-06T23:36:54.796Z,212.02
2018-01-06T23:39:21.090Z,213.87
2018-01-06T23:41:47.423Z,208.93
2018-01-06T23:44:13.747Z,173.85
2018-01-06T23:46:40.045Z,173.68
2018-01-06T23:49:07.086Z,189.70
2018-01-06T23:51:34.149Z,176.52
2018-01-06T23:54:00.435Z,176.30
2018-01-06T23:56:26.814Z,177.98
2018-01-06T23:58:53.109Z,164.95
